sensor_id;sensor_type;location;lat;lon;timestamp;temperature;humidity
62904;DHT22;49000;50.698;13.322;2023-12-29T00:01:13;6.60;1.00
62904;DHT22;49000;50.698;13.322;2023-12-29T00:03:38;6.30;1.00
62904;DHT22;49000;50.698;13.322;2023-12-29T00:06:04;6.60;1.00
62904;DHT22;49000;50.698;13.322;2023-12-29T00:08:31;6.70;1.00
62904;DHT22;49000;50.698;13.322;2023-12-29T00:10:56;6.60;1.00
62904;DHT22;49000;50.698;13.322;2023-12-29T00:13:22;6.40;1.00
62904;DHT22;49000;50.698;13.322;2023-12-29T00:15:52;6.10;1.00
62904;DHT22;49000;50.698;13.322;2023-12-29T00:18:18;6.40;1.00
62904;DHT22;49000;50.698;13.322;2023-12-29T00:20:44;6.20;1.00
62904;DHT22;49000;50.698;13.322;2023-12-29T00:23:09;6.10;1.00
62904;DHT22;49000;50.698;13.322;2023-12-29T00:25:38;6.50;1.00
62904;DHT22;49000;50.698;13.322;2023-12-29T00:28:04;6.20;1.00
62904;DHT22;49000;50.698;13.322;2023-12-29T00:30:30;5.80;1.00
62904;DHT22;49000;50.698;13.322;2023-12-29T00:32:56;6.10;1.00
62904;DHT22;49000;50.698;13.322;2023-12-29T00:35:21;6.00;1.00
62904;DHT22;49000;50.698;13.322;2023-12-29T00:37:47;6.30;1.00
62904;DHT22;49000;50.698;13.322;2023-12-29T00:40:13;5.90;1.00
62904;DHT22;49000;50.698;13.322;2023-12-29T00:42:38;5.80;1.00
62904;DHT22;49000;50.698;13.322;2023-12-29T00:45:04;6.10;1.00
62904;DHT22;49000;50.698;13.322;2023-12-29T00:47:30;6.00;1.00
62904;DHT22;49000;50.698;13.322;2023-12-29T00:49:56;5.60;1.00
62904;DHT22;49000;50.698;13.322;2023-12-29T00:52:21;6.00;1.00
62904;DHT22;49000;50.698;13.322;2023-12-29T00:54:47;5.80;1.00
62904;DHT22;49000;50.698;13.322;2023-12-29T00:57:12;6.00;1.00
62904;DHT22;49000;50.698;13.322;2023-12-29T00:59:38;6.00;1.00
62904;DHT22;49000;50.698;13.322;2023-12-29T01:02:07;6.10;1.00
62904;DHT22;49000;50.698;13.322;2023-12-29T01:04:33;6.00;1.00
62904;DHT22;49000;50.698;13.322;2023-12-29T01:06:59;5.70;1.00
62904;DHT22;49000;50.698;13.322;2023-12-29T01:09:26;5.70;1.00
62904;DHT22;49000;50.698;13.322;2023-12-29T01:11:51;5.50;1.00
62904;DHT22;49000;50.698;13.322;2023-12-29T01:14:17;5.70;1.00
62904;DHT22;49000;50.698;13.322;2023-12-29T01:16:42;5.90;1.00
62904;DHT22;49000;50.698;13.322;2023-12-29T01:19:08;5.70;1.00
62904;DHT22;49000;50.698;13.322;2023-12-29T01:21:33;5.80;1.00
62904;DHT22;49000;50.698;13.322;2023-12-29T01:24:00;6.00;1.00
62904;DHT22;49000;50.698;13.322;2023-12-29T01:26:26;5.70;1.00
62904;DHT22;49000;50.698;13.322;2023-12-29T01:28:52;5.90;1.00
62904;DHT22;49000;50.698;13.322;2023-12-29T01:31:17;5.70;1.00
62904;DHT22;49000;50.698;13.322;2023-12-29T01:33:43;6.10;1.00
62904;DHT22;49000;50.698;13.322;2023-12-29T01:36:08;5.70;1.00
62904;DHT22;49000;50.698;13.322;2023-12-29T01:38:34;6.00;1.00
62904;DHT22;49000;50.698;13.322;2023-12-29T01:40:59;6.30;1.00
62904;DHT22;49000;50.698;13.322;2023-12-29T01:43:25;6.30;1.00
62904;DHT22;49000;50.698;13.322;2023-12-29T01:45:50;5.80;1.00
62904;DHT22;49000;50.698;13.322;2023-12-29T01:48:15;6.20;1.00
62904;DHT22;49000;50.698;13.322;2023-12-29T01:50:41;6.10;1.00
62904;DHT22;49000;50.698;13.322;2023-12-29T01:53:07;5.90;1.00
62904;DHT22;49000;50.698;13.322;2023-12-29T01:55:33;6.00;1.00
62904;DHT22;49000;50.698;13.322;2023-12-29T01:57:59;6.10;1.00
62904;DHT22;49000;50.698;13.322;2023-12-29T02:00:25;6.10;1.00
62904;DHT22;49000;50.698;13.322;2023-12-29T02:02:51;6.20;1.00
62904;DHT22;49000;50.698;13.322;2023-12-29T02:05:18;6.00;1.00
62904;DHT22;49000;50.698;13.322;2023-12-29T02:07:45;6.10;1.00
62904;DHT22;49000;50.698;13.322;2023-12-29T02:10:12;6.20;1.00
62904;DHT22;49000;50.698;13.322;2023-12-29T02:12:41;6.20;1.00
62904;DHT22;49000;50.698;13.322;2023-12-29T02:15:07;6.20;1.00
62904;DHT22;49000;50.698;13.322;2023-12-29T02:17:40;6.30;1.00
62904;DHT22;49000;50.698;13.322;2023-12-29T02:20:08;5.90;1.00
62904;DHT22;49000;50.698;13.322;2023-12-29T02:22:34;5.90;1.00
62904;DHT22;49000;50.698;13.322;2023-12-29T02:25:00;5.60;1.00
62904;DHT22;49000;50.698;13.322;2023-12-29T02:33:01;5.90;1.00
62904;DHT22;49000;50.698;13.322;2023-12-29T02:35:28;5.60;1.00
62904;DHT22;49000;50.698;13.322;2023-12-29T02:37:55;6.10;1.00
62904;DHT22;49000;50.698;13.322;2023-12-29T02:40:21;5.90;1.00
62904;DHT22;49000;50.698;13.322;2023-12-29T02:42:47;6.00;1.00
62904;DHT22;49000;50.698;13.322;2023-12-29T02:45:14;6.20;1.00
62904;DHT22;49000;50.698;13.322;2023-12-29T02:47:41;6.00;1.00
62904;DHT22;49000;50.698;13.322;2023-12-29T02:50:07;5.90;1.00
62904;DHT22;49000;50.698;13.322;2023-12-29T02:52:32;6.00;1.00
62904;DHT22;49000;50.698;13.322;2023-12-29T02:54:58;5.80;1.00
62904;DHT22;49000;50.698;13.322;2023-12-29T02:57:23;6.10;1.00
62904;DHT22;49000;50.698;13.322;2023-12-29T02:59:49;6.20;1.00
62904;DHT22;49000;50.698;13.322;2023-12-29T03:02:14;6.00;1.00
62904;DHT22;49000;50.698;13.322;2023-12-29T03:04:40;6.00;1.00
62904;DHT22;49000;50.698;13.322;2023-12-29T03:07:05;6.10;1.00
62904;DHT22;49000;50.698;13.322;2023-12-29T03:09:31;6.20;1.00
62904;DHT22;49000;50.698;13.322;2023-12-29T03:11:56;6.30;1.00
62904;DHT22;49000;50.698;13.322;2023-12-29T03:14:22;6.60;1.00
62904;DHT22;49000;50.698;13.322;2023-12-29T03:16:47;6.20;1.00
62904;DHT22;49000;50.698;13.322;2023-12-29T03:19:13;6.30;1.00
62904;DHT22;49000;50.698;13.322;2023-12-29T03:21:38;6.40;1.00
62904;DHT22;49000;50.698;13.322;2023-12-29T03:24:04;6.40;1.00
62904;DHT22;49000;50.698;13.322;2023-12-29T03:26:29;6.50;1.00
62904;DHT22;49000;50.698;13.322;2023-12-29T03:28:55;6.10;1.00
62904;DHT22;49000;50.698;13.322;2023-12-29T03:31:20;6.50;1.00
62904;DHT22;49000;50.698;13.322;2023-12-29T03:33:46;5.90;1.00
62904;DHT22;49000;50.698;13.322;2023-12-29T03:36:12;5.90;1.00
62904;DHT22;49000;50.698;13.322;2023-12-29T03:38:37;6.00;1.00
62904;DHT22;49000;50.698;13.322;2023-12-29T03:41:03;6.20;1.00
62904;DHT22;49000;50.698;13.322;2023-12-29T03:43:29;6.10;1.00
62904;DHT22;49000;50.698;13.322;2023-12-29T03:45:54;6.20;1.00
62904;DHT22;49000;50.698;13.322;2023-12-29T03:48:20;6.50;1.00
62904;DHT22;49000;50.698;13.322;2023-12-29T03:50:45;6.20;1.00
62904;DHT22;49000;50.698;13.322;2023-12-29T03:53:11;6.30;1.00
62904;DHT22;49000;50.698;13.322;2023-12-29T03:55:36;6.20;1.00
62904;DHT22;49000;50.698;13.322;2023-12-29T03:58:03;6.00;1.00
62904;DHT22;49000;50.698;13.322;2023-12-29T04:00:28;6.30;1.00
62904;DHT22;49000;50.698;13.322;2023-12-29T04:02:54;6.40;1.00
62904;DHT22;49000;50.698;13.322;2023-12-29T04:05:20;6.40;1.00
62904;DHT22;49000;50.698;13.322;2023-12-29T04:07:45;6.60;1.00
62904;DHT22;49000;50.698;13.322;2023-12-29T04:10:10;6.50;1.00
62904;DHT22;49000;50.698;13.322;2023-12-29T04:12:36;6.00;1.00
62904;DHT22;49000;50.698;13.322;2023-12-29T04:15:03;6.00;1.00
62904;DHT22;49000;50.698;13.322;2023-12-29T04:17:29;6.60;1.00
62904;DHT22;49000;50.698;13.322;2023-12-29T04:19:54;6.00;1.00
62904;DHT22;49000;50.698;13.322;2023-12-29T04:22:21;6.40;1.00
62904;DHT22;49000;50.698;13.322;2023-12-29T04:24:46;6.30;1.00
62904;DHT22;49000;50.698;13.322;2023-12-29T04:27:14;6.50;1.00
62904;DHT22;49000;50.698;13.322;2023-12-29T04:29:40;6.00;1.00
62904;DHT22;49000;50.698;13.322;2023-12-29T04:32:06;6.00;1.00
62904;DHT22;49000;50.698;13.322;2023-12-29T04:34:31;6.50;1.00
62904;DHT22;49000;50.698;13.322;2023-12-29T04:36:57;6.40;1.00
62904;DHT22;49000;50.698;13.322;2023-12-29T04:39:22;6.40;1.00
62904;DHT22;49000;50.698;13.322;2023-12-29T04:41:47;6.50;1.00
62904;DHT22;49000;50.698;13.322;2023-12-29T04:44:13;6.50;1.00
62904;DHT22;49000;50.698;13.322;2023-12-29T04:46:38;6.50;1.00
62904;DHT22;49000;50.698;13.322;2023-12-29T04:49:04;6.30;1.00
62904;DHT22;49000;50.698;13.322;2023-12-29T04:51:29;6.20;1.00
62904;DHT22;49000;50.698;13.322;2023-12-29T04:53:55;5.90;1.00
62904;DHT22;49000;50.698;13.322;2023-12-29T04:56:20;6.00;1.00
62904;DHT22;49000;50.698;13.322;2023-12-29T04:58:46;6.40;1.00
62904;DHT22;49000;50.698;13.322;2023-12-29T05:01:11;6.00;1.00
62904;DHT22;49000;50.698;13.322;2023-12-29T05:03:37;6.00;1.00
62904;DHT22;49000;50.698;13.322;2023-12-29T05:06:02;6.00;1.00
62904;DHT22;49000;50.698;13.322;2023-12-29T05:08:28;6.50;1.00
62904;DHT22;49000;50.698;13.322;2023-12-29T05:10:53;6.20;1.00
62904;DHT22;49000;50.698;13.322;2023-12-29T05:13:20;6.30;1.00
62904;DHT22;49000;50.698;13.322;2023-12-29T05:15:46;6.00;1.00
62904;DHT22;49000;50.698;13.322;2023-12-29T05:18:11;6.30;1.00
62904;DHT22;49000;50.698;13.322;2023-12-29T05:20:37;6.50;1.00
62904;DHT22;49000;50.698;13.322;2023-12-29T05:23:02;5.90;1.00
62904;DHT22;49000;50.698;13.322;2023-12-29T05:25:28;6.40;1.00
62904;DHT22;49000;50.698;13.322;2023-12-29T05:27:53;6.50;1.00
62904;DHT22;49000;50.698;13.322;2023-12-29T05:30:19;5.90;1.00
62904;DHT22;49000;50.698;13.322;2023-12-29T05:32:44;6.20;1.00
62904;DHT22;49000;50.698;13.322;2023-12-29T05:35:10;5.90;1.00
62904;DHT22;49000;50.698;13.322;2023-12-29T05:37:35;6.40;1.00
62904;DHT22;49000;50.698;13.322;2023-12-29T05:40:00;6.10;1.00
62904;DHT22;49000;50.698;13.322;2023-12-29T05:42:26;6.50;1.00
62904;DHT22;49000;50.698;13.322;2023-12-29T05:44:51;6.40;1.00
62904;DHT22;49000;50.698;13.322;2023-12-29T05:47:18;6.30;1.00
62904;DHT22;49000;50.698;13.322;2023-12-29T05:49:43;5.90;1.00
62904;DHT22;49000;50.698;13.322;2023-12-29T05:52:09;6.10;1.00
62904;DHT22;49000;50.698;13.322;2023-12-29T05:54:35;6.00;1.00
62904;DHT22;49000;50.698;13.322;2023-12-29T05:57:01;6.10;1.00
62904;DHT22;49000;50.698;13.322;2023-12-29T05:59:26;6.30;1.00
62904;DHT22;49000;50.698;13.322;2023-12-29T06:01:52;6.40;1.00
62904;DHT22;49000;50.698;13.322;2023-12-29T06:04:18;6.40;1.00
62904;DHT22;49000;50.698;13.322;2023-12-29T06:06:43;6.50;1.00
62904;DHT22;49000;50.698;13.322;2023-12-29T06:09:09;6.20;1.00
62904;DHT22;49000;50.698;13.322;2023-12-29T06:11:35;5.90;1.00
62904;DHT22;49000;50.698;13.322;2023-12-29T06:14:01;6.40;1.00
62904;DHT22;49000;50.698;13.322;2023-12-29T06:16:26;6.20;1.00
62904;DHT22;49000;50.698;13.322;2023-12-29T06:18:52;6.30;1.00
62904;DHT22;49000;50.698;13.322;2023-12-29T06:21:18;6.30;1.00
62904;DHT22;49000;50.698;13.322;2023-12-29T06:23:44;6.20;1.00
62904;DHT22;49000;50.698;13.322;2023-12-29T06:26:20;6.00;1.00
62904;DHT22;49000;50.698;13.322;2023-12-29T06:28:46;6.00;1.00
62904;DHT22;49000;50.698;13.322;2023-12-29T06:31:12;6.20;1.00
62904;DHT22;49000;50.698;13.322;2023-12-29T06:33:41;5.80;1.00
62904;DHT22;49000;50.698;13.322;2023-12-29T06:36:07;5.80;1.00
62904;DHT22;49000;50.698;13.322;2023-12-29T06:38:33;6.20;1.00
62904;DHT22;49000;50.698;13.322;2023-12-29T06:41:02;6.00;1.00
62904;DHT22;49000;50.698;13.322;2023-12-29T06:43:28;6.00;1.00
62904;DHT22;49000;50.698;13.322;2023-12-29T06:45:53;6.30;1.00
62904;DHT22;49000;50.698;13.322;2023-12-29T06:48:19;5.70;1.00
62904;DHT22;49000;50.698;13.322;2023-12-29T06:50:45;6.20;1.00
62904;DHT22;49000;50.698;13.322;2023-12-29T06:53:11;6.00;1.00
62904;DHT22;49000;50.698;13.322;2023-12-29T06:55:36;5.70;1.00
62904;DHT22;49000;50.698;13.322;2023-12-29T06:58:02;6.00;1.00
62904;DHT22;49000;50.698;13.322;2023-12-29T07:00:28;6.30;1.00
62904;DHT22;49000;50.698;13.322;2023-12-29T07:02:53;5.70;1.00
62904;DHT22;49000;50.698;13.322;2023-12-29T07:05:19;5.70;1.00
62904;DHT22;49000;50.698;13.322;2023-12-29T07:07:44;6.00;1.00
62904;DHT22;49000;50.698;13.322;2023-12-29T07:10:12;5.60;1.00
62904;DHT22;49000;50.698;13.322;2023-12-29T07:12:39;6.10;1.00
62904;DHT22;49000;50.698;13.322;2023-12-29T07:15:04;5.80;1.00
62904;DHT22;49000;50.698;13.322;2023-12-29T07:17:30;5.90;1.00
62904;DHT22;49000;50.698;13.322;2023-12-29T07:19:55;6.00;1.00
62904;DHT22;49000;50.698;13.322;2023-12-29T07:22:21;5.70;1.00
62904;DHT22;49000;50.698;13.322;2023-12-29T07:24:46;6.20;1.00
62904;DHT22;49000;50.698;13.322;2023-12-29T07:27:12;6.10;1.00
62904;DHT22;49000;50.698;13.322;2023-12-29T07:29:37;5.90;1.00
62904;DHT22;49000;50.698;13.322;2023-12-29T07:32:03;6.10;1.00
62904;DHT22;49000;50.698;13.322;2023-12-29T07:34:29;5.80;1.00
62904;DHT22;49000;50.698;13.322;2023-12-29T07:36:56;5.80;1.00
62904;DHT22;49000;50.698;13.322;2023-12-29T07:39:22;6.00;1.00
62904;DHT22;49000;50.698;13.322;2023-12-29T07:41:48;5.80;1.00
62904;DHT22;49000;50.698;13.322;2023-12-29T07:44:16;6.20;1.00
62904;DHT22;49000;50.698;13.322;2023-12-29T07:46:42;5.60;1.00
62904;DHT22;49000;50.698;13.322;2023-12-29T07:49:07;5.70;1.00
62904;DHT22;49000;50.698;13.322;2023-12-29T07:51:33;5.80;1.00
62904;DHT22;49000;50.698;13.322;2023-12-29T07:53:59;6.20;1.00
62904;DHT22;49000;50.698;13.322;2023-12-29T07:56:25;5.90;1.00
62904;DHT22;49000;50.698;13.322;2023-12-29T07:58:50;5.80;1.00
62904;DHT22;49000;50.698;13.322;2023-12-29T08:01:16;6.30;1.00
62904;DHT22;49000;50.698;13.322;2023-12-29T08:03:41;6.20;1.00
62904;DHT22;49000;50.698;13.322;2023-12-29T08:06:07;5.90;1.00
62904;DHT22;49000;50.698;13.322;2023-12-29T08:08:32;6.10;1.00
62904;DHT22;49000;50.698;13.322;2023-12-29T08:10:58;6.20;1.00
62904;DHT22;49000;50.698;13.322;2023-12-29T08:13:23;6.50;1.00
62904;DHT22;49000;50.698;13.322;2023-12-29T08:15:49;6.30;1.00
62904;DHT22;49000;50.698;13.322;2023-12-29T08:18:14;6.40;1.00
62904;DHT22;49000;50.698;13.322;2023-12-29T08:20:40;6.40;1.00
62904;DHT22;49000;50.698;13.322;2023-12-29T08:23:05;6.40;1.00
62904;DHT22;49000;50.698;13.322;2023-12-29T08:25:31;6.10;1.00
62904;DHT22;49000;50.698;13.322;2023-12-29T08:27:56;6.60;1.00
62904;DHT22;49000;50.698;13.322;2023-12-29T08:30:22;6.60;1.00
62904;DHT22;49000;50.698;13.322;2023-12-29T08:32:47;6.60;1.00
62904;DHT22;49000;50.698;13.322;2023-12-29T08:35:13;6.70;1.00
62904;DHT22;49000;50.698;13.322;2023-12-29T08:37:38;6.80;1.00
62904;DHT22;49000;50.698;13.322;2023-12-29T08:40:04;6.80;1.00
62904;DHT22;49000;50.698;13.322;2023-12-29T08:42:31;6.80;1.00
62904;DHT22;49000;50.698;13.322;2023-12-29T08:44:59;6.70;1.00
62904;DHT22;49000;50.698;13.322;2023-12-29T08:47:24;6.90;1.00
62904;DHT22;49000;50.698;13.322;2023-12-29T08:49:50;6.90;1.00
62904;DHT22;49000;50.698;13.322;2023-12-29T08:52:17;6.50;1.00
62904;DHT22;49000;50.698;13.322;2023-12-29T08:54:42;6.60;1.00
62904;DHT22;49000;50.698;13.322;2023-12-29T08:57:08;6.70;1.00
62904;DHT22;49000;50.698;13.322;2023-12-29T08:59:33;6.80;1.00
62904;DHT22;49000;50.698;13.322;2023-12-29T09:01:59;6.60;1.00
62904;DHT22;49000;50.698;13.322;2023-12-29T09:04:25;7.00;1.00
62904;DHT22;49000;50.698;13.322;2023-12-29T09:06:50;7.00;1.00
62904;DHT22;49000;50.698;13.322;2023-12-29T09:09:16;7.20;1.00
62904;DHT22;49000;50.698;13.322;2023-12-29T09:11:42;6.90;1.00
62904;DHT22;49000;50.698;13.322;2023-12-29T09:14:07;7.10;1.00
62904;DHT22;49000;50.698;13.322;2023-12-29T09:16:35;7.30;1.00
62904;DHT22;49000;50.698;13.322;2023-12-29T09:19:00;6.90;1.00
62904;DHT22;49000;50.698;13.322;2023-12-29T09:21:26;7.30;1.00
62904;DHT22;49000;50.698;13.322;2023-12-29T09:23:51;7.30;1.00
62904;DHT22;49000;50.698;13.322;2023-12-29T09:26:17;7.30;1.00
62904;DHT22;49000;50.698;13.322;2023-12-29T09:28:43;7.00;1.00
62904;DHT22;49000;50.698;13.322;2023-12-29T09:31:11;7.30;1.00
62904;DHT22;49000;50.698;13.322;2023-12-29T09:33:36;6.80;1.00
62904;DHT22;49000;50.698;13.322;2023-12-29T09:36:03;7.20;1.00
62904;DHT22;49000;50.698;13.322;2023-12-29T09:38:28;7.10;1.00
62904;DHT22;49000;50.698;13.322;2023-12-29T09:40:55;7.00;1.00
62904;DHT22;49000;50.698;13.322;2023-12-29T09:43:27;6.80;1.00
62904;DHT22;49000;50.698;13.322;2023-12-29T09:45:54;6.90;1.00
62904;DHT22;49000;50.698;13.322;2023-12-29T09:48:21;7.30;1.00
62904;DHT22;49000;50.698;13.322;2023-12-29T09:50:50;7.30;1.00
62904;DHT22;49000;50.698;13.322;2023-12-29T09:53:17;7.40;1.00
62904;DHT22;49000;50.698;13.322;2023-12-29T09:55:45;7.50;1.00
62904;DHT22;49000;50.698;13.322;2023-12-29T09:58:12;7.50;1.00
62904;DHT22;49000;50.698;13.322;2023-12-29T10:00:38;7.60;1.00
62904;DHT22;49000;50.698;13.322;2023-12-29T10:03:05;7.70;1.00
62904;DHT22;49000;50.698;13.322;2023-12-29T10:05:31;7.70;1.00
62904;DHT22;49000;50.698;13.322;2023-12-29T10:07:59;7.70;1.00
62904;DHT22;49000;50.698;13.322;2023-12-29T10:10:27;7.70;1.00
62904;DHT22;49000;50.698;13.322;2023-12-29T10:12:54;7.70;1.00
62904;DHT22;49000;50.698;13.322;2023-12-29T10:15:20;7.70;1.00
62904;DHT22;49000;50.698;13.322;2023-12-29T10:20:53;7.70;1.00
62904;DHT22;49000;50.698;13.322;2023-12-29T10:23:34;7.70;1.00
62904;DHT22;49000;50.698;13.322;2023-12-29T10:26:01;7.50;1.00
62904;DHT22;49000;50.698;13.322;2023-12-29T10:28:28;7.70;1.00
62904;DHT22;49000;50.698;13.322;2023-12-29T10:30:54;7.70;1.00
62904;DHT22;49000;50.698;13.322;2023-12-29T10:33:20;7.70;1.00
62904;DHT22;49000;50.698;13.322;2023-12-29T10:35:57;7.70;1.00
62904;DHT22;49000;50.698;13.322;2023-12-29T10:38:27;7.70;1.00
62904;DHT22;49000;50.698;13.322;2023-12-29T10:40:53;7.70;1.00
62904;DHT22;49000;50.698;13.322;2023-12-29T10:43:24;7.70;1.00
62904;DHT22;49000;50.698;13.322;2023-12-29T10:45:51;7.70;1.00
62904;DHT22;49000;50.698;13.322;2023-12-29T10:48:30;7.60;1.00
62904;DHT22;49000;50.698;13.322;2023-12-29T10:50:56;7.60;1.00
62904;DHT22;49000;50.698;13.322;2023-12-29T10:53:22;7.70;1.00
62904;DHT22;49000;50.698;13.322;2023-12-29T10:55:47;7.70;1.00
62904;DHT22;49000;50.698;13.322;2023-12-29T10:58:16;7.70;1.00
62904;DHT22;49000;50.698;13.322;2023-12-29T11:00:41;7.70;1.00
62904;DHT22;49000;50.698;13.322;2023-12-29T11:03:07;7.40;1.00
62904;DHT22;49000;50.698;13.322;2023-12-29T11:05:33;7.80;1.00
62904;DHT22;49000;50.698;13.322;2023-12-29T11:07:59;7.80;1.00
62904;DHT22;49000;50.698;13.322;2023-12-29T11:10:25;7.90;1.00
62904;DHT22;49000;50.698;13.322;2023-12-29T11:12:51;8.00;1.00
62904;DHT22;49000;50.698;13.322;2023-12-29T11:15:17;8.10;1.00
62904;DHT22;49000;50.698;13.322;2023-12-29T11:17:43;8.20;1.00
62904;DHT22;49000;50.698;13.322;2023-12-29T11:20:15;8.40;1.00
62904;DHT22;49000;50.698;13.322;2023-12-29T11:22:42;8.40;1.00
62904;DHT22;49000;50.698;13.322;2023-12-29T11:25:08;8.50;1.00
62904;DHT22;49000;50.698;13.322;2023-12-29T11:27:34;8.50;1.00
62904;DHT22;49000;50.698;13.322;2023-12-29T11:30:02;8.50;1.00
62904;DHT22;49000;50.698;13.322;2023-12-29T11:32:34;8.60;1.00
62904;DHT22;49000;50.698;13.322;2023-12-29T11:35:34;8.70;1.00
62904;DHT22;49000;50.698;13.322;2023-12-29T11:38:03;8.80;1.00
62904;DHT22;49000;50.698;13.322;2023-12-29T11:40:36;8.70;1.00
62904;DHT22;49000;50.698;13.322;2023-12-29T11:43:12;8.80;1.00
62904;DHT22;49000;50.698;13.322;2023-12-29T11:45:38;8.80;1.00
62904;DHT22;49000;50.698;13.322;2023-12-29T11:48:04;8.90;1.00
62904;DHT22;49000;50.698;13.322;2023-12-29T11:50:38;8.90;1.00
62904;DHT22;49000;50.698;13.322;2023-12-29T11:53:06;8.90;1.00
62904;DHT22;49000;50.698;13.322;2023-12-29T11:55:36;8.90;1.00
62904;DHT22;49000;50.698;13.322;2023-12-29T11:58:26;8.90;1.00
62904;DHT22;49000;50.698;13.322;2023-12-29T12:00:53;8.90;1.00
62904;DHT22;49000;50.698;13.322;2023-12-29T12:03:28;8.80;1.00
62904;DHT22;49000;50.698;13.322;2023-12-29T12:05:55;8.80;1.00
62904;DHT22;49000;50.698;13.322;2023-12-29T12:08:33;8.70;1.00
62904;DHT22;49000;50.698;13.322;2023-12-29T12:13:53;8.60;1.00
62904;DHT22;49000;50.698;13.322;2023-12-29T12:19:11;8.80;1.00
62904;DHT22;49000;50.698;13.322;2023-12-29T12:21:37;8.80;1.00
62904;DHT22;49000;50.698;13.322;2023-12-29T12:24:04;8.90;1.00
62904;DHT22;49000;50.698;13.322;2023-12-29T12:26:31;8.90;1.00
62904;DHT22;49000;50.698;13.322;2023-12-29T12:28:57;8.90;1.00
62904;DHT22;49000;50.698;13.322;2023-12-29T12:31:23;9.00;1.00
62904;DHT22;49000;50.698;13.322;2023-12-29T12:33:55;9.00;1.00
62904;DHT22;49000;50.698;13.322;2023-12-29T12:36:21;9.10;1.00
62904;DHT22;49000;50.698;13.322;2023-12-29T12:38:54;9.10;1.00
62904;DHT22;49000;50.698;13.322;2023-12-29T12:41:20;9.00;1.00
62904;DHT22;49000;50.698;13.322;2023-12-29T12:44:03;9.10;1.00
62904;DHT22;49000;50.698;13.322;2023-12-29T12:46:34;9.10;1.00
62904;DHT22;49000;50.698;13.322;2023-12-29T12:49:01;9.10;1.00
62904;DHT22;49000;50.698;13.322;2023-12-29T12:51:28;9.10;1.00
62904;DHT22;49000;50.698;13.322;2023-12-29T12:53:53;9.10;1.00
62904;DHT22;49000;50.698;13.322;2023-12-29T12:56:19;9.10;1.00
62904;DHT22;49000;50.698;13.322;2023-12-29T12:58:45;9.10;1.00
62904;DHT22;49000;50.698;13.322;2023-12-29T13:01:11;9.20;1.00
62904;DHT22;49000;50.698;13.322;2023-12-29T13:03:38;9.20;1.00
62904;DHT22;49000;50.698;13.322;2023-12-29T13:06:04;9.10;1.00
62904;DHT22;49000;50.698;13.322;2023-12-29T13:08:32;9.10;1.00
62904;DHT22;49000;50.698;13.322;2023-12-29T13:10:58;9.10;1.00
62904;DHT22;49000;50.698;13.322;2023-12-29T13:13:42;9.00;1.00
62904;DHT22;49000;50.698;13.322;2023-12-29T13:16:08;9.00;1.00
62904;DHT22;49000;50.698;13.322;2023-12-29T13:18:33;9.00;1.00
62904;DHT22;49000;50.698;13.322;2023-12-29T13:21:01;8.90;1.00
62904;DHT22;49000;50.698;13.322;2023-12-29T13:23:27;8.90;1.00
62904;DHT22;49000;50.698;13.322;2023-12-29T13:25:55;8.80;1.00
62904;DHT22;49000;50.698;13.322;2023-12-29T13:28:22;8.80;1.00
62904;DHT22;49000;50.698;13.322;2023-12-29T13:30:48;8.70;1.00
62904;DHT22;49000;50.698;13.322;2023-12-29T13:33:45;8.80;1.00
62904;DHT22;49000;50.698;13.322;2023-12-29T13:37:01;8.80;1.00
62904;DHT22;49000;50.698;13.322;2023-12-29T13:39:36;8.80;1.00
62904;DHT22;49000;50.698;13.322;2023-12-29T13:42:05;8.80;1.00
62904;DHT22;49000;50.698;13.322;2023-12-29T13:44:32;8.80;1.00
62904;DHT22;49000;50.698;13.322;2023-12-29T13:46:58;8.80;1.00
62904;DHT22;49000;50.698;13.322;2023-12-29T13:49:24;8.80;1.00
62904;DHT22;49000;50.698;13.322;2023-12-29T13:51:50;8.80;1.00
62904;DHT22;49000;50.698;13.322;2023-12-29T13:54:16;8.90;1.00
62904;DHT22;49000;50.698;13.322;2023-12-29T13:56:52;8.90;1.00
62904;DHT22;49000;50.698;13.322;2023-12-29T13:59:18;8.90;1.00
62904;DHT22;49000;50.698;13.322;2023-12-29T14:01:44;9.00;1.00
62904;DHT22;49000;50.698;13.322;2023-12-29T14:04:11;9.00;1.00
62904;DHT22;49000;50.698;13.322;2023-12-29T14:06:52;9.00;1.00
62904;DHT22;49000;50.698;13.322;2023-12-29T14:09:18;9.00;1.00
62904;DHT22;49000;50.698;13.322;2023-12-29T14:11:47;8.90;1.00
62904;DHT22;49000;50.698;13.322;2023-12-29T14:14:13;8.90;1.00
62904;DHT22;49000;50.698;13.322;2023-12-29T14:16:40;8.80;1.00
62904;DHT22;49000;50.698;13.322;2023-12-29T14:19:05;8.70;1.00
62904;DHT22;49000;50.698;13.322;2023-12-29T14:21:32;8.70;1.00
62904;DHT22;49000;50.698;13.322;2023-12-29T14:24:06;8.70;1.00
62904;DHT22;49000;50.698;13.322;2023-12-29T14:26:33;8.70;1.00
62904;DHT22;49000;50.698;13.322;2023-12-29T14:29:06;8.70;1.00
62904;DHT22;49000;50.698;13.322;2023-12-29T14:31:34;8.70;1.00
62904;DHT22;49000;50.698;13.322;2023-12-29T14:34:01;8.60;1.00
62904;DHT22;49000;50.698;13.322;2023-12-29T14:36:26;8.60;1.00
62904;DHT22;49000;50.698;13.322;2023-12-29T14:38:52;8.60;1.00
62904;DHT22;49000;50.698;13.322;2023-12-29T14:41:18;8.50;1.00
62904;DHT22;49000;50.698;13.322;2023-12-29T14:43:43;8.50;1.00
62904;DHT22;49000;50.698;13.322;2023-12-29T14:46:08;8.40;1.00
62904;DHT22;49000;50.698;13.322;2023-12-29T14:48:34;8.40;1.00
62904;DHT22;49000;50.698;13.322;2023-12-29T14:51:00;8.40;1.00
62904;DHT22;49000;50.698;13.322;2023-12-29T14:53:25;8.40;1.00
62904;DHT22;49000;50.698;13.322;2023-12-29T14:55:51;8.30;1.00
62904;DHT22;49000;50.698;13.322;2023-12-29T14:58:16;8.30;1.00
62904;DHT22;49000;50.698;13.322;2023-12-29T15:00:44;8.30;1.00
62904;DHT22;49000;50.698;13.322;2023-12-29T15:03:11;8.30;1.00
62904;DHT22;49000;50.698;13.322;2023-12-29T15:05:37;8.30;1.00
62904;DHT22;49000;50.698;13.322;2023-12-29T15:08:03;8.20;1.00
62904;DHT22;49000;50.698;13.322;2023-12-29T15:10:29;8.20;1.00
62904;DHT22;49000;50.698;13.322;2023-12-29T15:12:54;8.20;1.00
62904;DHT22;49000;50.698;13.322;2023-12-29T15:15:20;8.20;1.00
62904;DHT22;49000;50.698;13.322;2023-12-29T15:17:45;8.20;1.00
62904;DHT22;49000;50.698;13.322;2023-12-29T15:20:11;8.20;1.00
62904;DHT22;49000;50.698;13.322;2023-12-29T15:22:36;8.20;1.00
62904;DHT22;49000;50.698;13.322;2023-12-29T15:25:02;8.20;1.00
62904;DHT22;49000;50.698;13.322;2023-12-29T15:27:28;8.20;1.00
62904;DHT22;49000;50.698;13.322;2023-12-29T15:29:53;8.20;1.00
62904;DHT22;49000;50.698;13.322;2023-12-29T15:32:18;8.20;1.00
62904;DHT22;49000;50.698;13.322;2023-12-29T15:34:44;8.20;1.00
62904;DHT22;49000;50.698;13.322;2023-12-29T15:37:10;8.20;1.00
62904;DHT22;49000;50.698;13.322;2023-12-29T15:39:35;8.20;1.00
62904;DHT22;49000;50.698;13.322;2023-12-29T15:42:01;8.20;1.00
62904;DHT22;49000;50.698;13.322;2023-12-29T15:44:26;8.20;1.00
62904;DHT22;49000;50.698;13.322;2023-12-29T15:46:52;8.20;1.00
62904;DHT22;49000;50.698;13.322;2023-12-29T15:49:19;8.10;1.00
62904;DHT22;49000;50.698;13.322;2023-12-29T15:51:44;8.20;1.00
62904;DHT22;49000;50.698;13.322;2023-12-29T15:54:10;8.10;1.00
62904;DHT22;49000;50.698;13.322;2023-12-29T15:56:35;8.20;1.00